Time;durP1;ratioP1;P1;durP2;ratioP2;P2;SDS_P1;SDS_P2;PMS_P1;PMS_P2;Temp;Humidity;BMP_temperature;BMP_pressure;BME280_temperature;BME280_humidity;BME280_pressure;Samples;Min_cycle;Max_cycle;Signal;HPM_P1;HPM_P2
2023/06/17 00:00:27;;;;;;;15.15;9.32;;;;;;;;;;5009169;28;20099;-77
2023/06/17 00:02:53;;;;;;;15.07;8.80;;;;;;;;;;5026480;28;20128;-77
2023/06/17 00:05:19;;;;;;;13.18;8.70;;;;;;;;;;5024810;28;20049;-78
2023/06/17 00:07:45;;;;;;;12.13;8.23;;;;;;;;;;5022152;28;20545;-77
2023/06/17 00:10:11;;;;;;;14.48;8.88;;;;;;;;;;5018145;28;20041;-77
2023/06/17 00:12:37;;;;;;;16.00;8.85;;;;;;;;;;5025651;28;20508;-78
2023/06/17 00:15:04;;;;;;;13.70;9.20;;;;;;;;;;5022089;28;20199;-77
2023/06/17 00:17:31;;;;;;;11.05;8.77;;;;;;;;;;5026834;28;20479;-77
2023/06/17 00:20:07;;;;;;;12.50;9.02;;;;;;;;;;5023398;28;20526;-77
2023/06/17 00:22:34;;;;;;;12.43;9.45;;;;;;;;;;5024365;28;20041;-76
2023/06/17 00:25:00;;;;;;;14.20;8.63;;;;;;;;;;5020434;28;20028;-76
2023/06/17 00:27:26;;;;;;;12.48;8.73;;;;;;;;;;5027621;28;20038;-77
2023/06/17 00:29:52;;;;;;;11.57;8.77;;;;;;;;;;5024349;28;20525;-77
2023/06/17 00:32:18;;;;;;;11.48;8.98;;;;;;;;;;5025542;28;20121;-76
2023/06/17 00:34:44;;;;;;;14.25;10.05;;;;;;;;;;5022739;28;20029;-77
2023/06/17 00:37:10;;;;;;;11.80;9.20;;;;;;;;;;5027983;28;20025;-76
2023/06/17 00:39:36;;;;;;;10.93;9.77;;;;;;;;;;5025867;28;20056;-76
2023/06/17 00:42:02;;;;;;;14.48;10.18;;;;;;;;;;5023557;28;20376;-75
2023/06/17 00:44:31;;;;;;;10.88;9.77;;;;;;;;;;5019641;28;20128;-76
2023/06/17 00:46:57;;;;;;;10.25;9.23;;;;;;;;;;5020896;28;20037;-76
2023/06/17 00:49:29;;;;;;;13.85;8.95;;;;;;;;;;5022519;28;20033;-76
2023/06/17 00:51:55;;;;;;;9.23;8.03;;;;;;;;;;5024263;28;20021;-76
2023/06/17 00:54:21;;;;;;;11.10;8.52;;;;;;;;;;5024374;28;20033;-77
2023/06/17 00:56:47;;;;;;;13.65;8.63;;;;;;;;;;5022782;28;20021;-76
2023/06/17 00:59:13;;;;;;;8.35;6.97;;;;;;;;;;5023896;28;20079;-75
2023/06/17 01:01:39;;;;;;;8.27;7.45;;;;;;;;;;5022668;28;20649;-75
2023/06/17 01:04:06;;;;;;;8.75;7.68;;;;;;;;;;5020940;28;20026;-75
2023/06/17 01:06:47;;;;;;;8.50;7.50;;;;;;;;;;5024215;28;20424;-76
2023/06/17 01:09:16;;;;;;;11.25;7.78;;;;;;;;;;5020346;28;20033;-77
2023/06/17 01:11:43;;;;;;;8.98;7.57;;;;;;;;;;5027782;28;20040;-77
2023/06/17 01:14:10;;;;;;;11.30;8.07;;;;;;;;;;5030305;28;20061;-76
2023/06/17 01:16:43;;;;;;;10.00;8.40;;;;;;;;;;5025464;28;20031;-76
2023/06/17 01:19:18;;;;;;;9.50;8.27;;;;;;;;;;5031933;28;20467;-76
2023/06/17 01:21:44;;;;;;;10.13;8.60;;;;;;;;;;5030851;28;20502;-76
2023/06/17 01:24:12;;;;;;;8.85;7.72;;;;;;;;;;5026542;28;20029;-76
2023/06/17 01:26:39;;;;;;;15.70;9.25;;;;;;;;;;5027427;28;20033;-76
2023/06/17 01:29:05;;;;;;;9.57;8.30;;;;;;;;;;5031319;28;20040;-76
2023/06/17 01:31:32;;;;;;;9.15;8.00;;;;;;;;;;5030106;28;20037;-76
2023/06/17 01:34:00;;;;;;;11.93;8.52;;;;;;;;;;5030443;28;20075;-76
2023/06/17 01:36:29;;;;;;;14.13;8.35;;;;;;;;;;5027593;28;20108;-76
2023/06/17 01:39:03;;;;;;;13.18;8.82;;;;;;;;;;5032389;28;20022;-77
2023/06/17 01:41:36;;;;;;;15.32;9.57;;;;;;;;;;5025663;28;20167;-76
2023/06/17 01:44:03;;;;;;;14.68;8.73;;;;;;;;;;5027462;28;20364;-76
2023/06/17 01:46:30;;;;;;;11.35;8.95;;;;;;;;;;5031624;28;20405;-77
2023/06/17 01:48:56;;;;;;;9.85;8.25;;;;;;;;;;5029620;28;20029;-76
2023/06/17 01:51:22;;;;;;;12.68;9.55;;;;;;;;;;5030686;28;20486;-76
2023/06/17 01:53:48;;;;;;;17.00;10.68;;;;;;;;;;5030154;28;20434;-77
2023/06/17 01:56:14;;;;;;;19.65;11.75;;;;;;;;;;5030316;28;20041;-77
2023/06/17 01:58:40;;;;;;;17.92;11.40;;;;;;;;;;5028527;28;20390;-76
2023/06/17 02:01:09;;;;;;;19.08;11.23;;;;;;;;;;5030966;28;20038;-77
2023/06/17 02:03:35;;;;;;;25.25;12.38;;;;;;;;;;5031386;28;20394;-77
2023/06/17 02:06:01;;;;;;;21.65;13.50;;;;;;;;;;5027951;28;20025;-77
2023/06/17 02:08:27;;;;;;;17.55;11.50;;;;;;;;;;5030752;28;20116;-77
2023/06/17 02:10:54;;;;;;;22.67;13.35;;;;;;;;;;5029652;28;20034;-77
2023/06/17 02:13:21;;;;;;;23.88;13.48;;;;;;;;;;5011162;28;20582;-77
2023/06/17 02:15:47;;;;;;;20.38;13.15;;;;;;;;;;5029500;28;20039;-77
2023/06/17 02:18:14;;;;;;;22.08;12.93;;;;;;;;;;5028102;28;20029;-77
2023/06/17 02:20:40;;;;;;;18.27;12.68;;;;;;;;;;5025726;28;20045;-76
2023/06/17 02:23:06;;;;;;;21.42;12.75;;;;;;;;;;5025055;28;20064;-75
2023/06/17 02:25:32;;;;;;;17.95;12.95;;;;;;;;;;5022912;28;20364;-76
2023/06/17 02:27:58;;;;;;;21.42;13.13;;;;;;;;;;5024394;28;20379;-75
2023/06/17 02:30:24;;;;;;;21.65;12.85;;;;;;;;;;5024611;28;20039;-77
2023/06/17 02:32:50;;;;;;;21.25;13.35;;;;;;;;;;5026203;28;20026;-77
2023/06/17 02:35:16;;;;;;;16.92;13.70;;;;;;;;;;5027473;28;20348;-76
2023/06/17 02:37:42;;;;;;;20.38;13.48;;;;;;;;;;5023647;28;20121;-76
2023/06/17 02:40:09;;;;;;;28.10;14.30;;;;;;;;;;5027621;28;20025;-77
2023/06/17 02:42:38;;;;;;;21.25;14.77;;;;;;;;;;5025606;28;20211;-78
2023/06/17 02:45:04;;;;;;;18.05;12.93;;;;;;;;;;5026650;28;20044;-76
2023/06/17 02:47:30;;;;;;;20.30;14.57;;;;;;;;;;5024832;28;20108;-76
2023/06/17 02:49:56;;;;;;;21.38;14.20;;;;;;;;;;5027731;28;20030;-76
2023/06/17 02:52:23;;;;;;;24.85;16.35;;;;;;;;;;5022558;28;20030;-76
2023/06/17 02:54:49;;;;;;;22.58;14.77;;;;;;;;;;5024004;28;20116;-76
2023/06/17 02:57:16;;;;;;;22.08;14.70;;;;;;;;;;5020833;28;20073;-77
2023/06/17 02:59:42;;;;;;;21.40;15.15;;;;;;;;;;5024732;28;20350;-76
2023/06/17 03:02:08;;;;;;;30.48;18.17;;;;;;;;;;5027346;28;20076;-76
2023/06/17 03:04:35;;;;;;;29.90;18.10;;;;;;;;;;5024294;28;20120;-77
2023/06/17 03:07:05;;;;;;;28.17;18.25;;;;;;;;;;5025386;28;20039;-76
2023/06/17 03:09:31;;;;;;;23.38;18.45;;;;;;;;;;5025874;28;20049;-75
2023/06/17 03:11:58;;;;;;;24.55;18.40;;;;;;;;;;5027674;28;20105;-76
2023/06/17 03:14:25;;;;;;;31.98;19.02;;;;;;;;;;5024057;28;20037;-76
2023/06/17 03:16:52;;;;;;;24.60;19.63;;;;;;;;;;5026695;28;20017;-74
2023/06/17 03:19:18;;;;;;;28.58;19.50;;;;;;;;;;5025157;28;20040;-76
2023/06/17 03:21:45;;;;;;;30.58;19.17;;;;;;;;;;5027330;28;20053;-76
2023/06/17 03:24:11;;;;;;;31.98;19.73;;;;;;;;;;5023840;28;20128;-76
2023/06/17 03:26:37;;;;;;;27.00;19.15;;;;;;;;;;5025560;28;20557;-76
2023/06/17 03:29:04;;;;;;;26.67;17.33;;;;;;;;;;5025412;28;20383;-78
2023/06/17 03:31:30;;;;;;;25.38;18.48;;;;;;;;;;5026242;28;20407;-77
2023/06/17 03:33:56;;;;;;;24.80;18.70;;;;;;;;;;5026794;28;20029;-77
2023/06/17 03:36:28;;;;;;;26.08;18.02;;;;;;;;;;5023341;28;20558;-77
2023/06/17 03:38:54;;;;;;;32.00;20.48;;;;;;;;;;5022413;28;20044;-78
2023/06/17 03:41:20;;;;;;;31.80;19.02;;;;;;;;;;5025282;28;20056;-78
2023/06/17 03:43:46;;;;;;;28.50;19.65;;;;;;;;;;5023675;28;20041;-79
2023/06/17 03:46:12;;;;;;;26.92;18.70;;;;;;;;;;5031474;28;20388;-78
2023/06/17 03:48:39;;;;;;;29.90;18.90;;;;;;;;;;5028446;28;20025;-78
2023/06/17 03:51:06;;;;;;;30.10;18.90;;;;;;;;;;5029734;28;20379;-77
2023/06/17 03:53:34;;;;;;;25.90;18.58;;;;;;;;;;5028261;28;21530;-77
2023/06/17 03:56:00;;;;;;;27.45;16.40;;;;;;;;;;5028704;28;20065;-77
2023/06/17 03:58:28;;;;;;;21.25;16.67;;;;;;;;;;5029421;28;20072;-77
2023/06/17 04:00:54;;;;;;;26.70;16.73;;;;;;;;;;5031701;28;20032;-78
2023/06/17 04:03:24;;;;;;;23.77;17.95;;;;;;;;;;5030551;28;20036;-78
2023/06/17 04:05:51;;;;;;;26.83;18.65;;;;;;;;;;5021403;28;20033;-79
2023/06/17 04:08:18;;;;;;;26.70;18.83;;;;;;;;;;5025214;28;20029;-78
2023/06/17 04:10:44;;;;;;;26.60;18.05;;;;;;;;;;5027186;28;20033;-79
2023/06/17 04:13:10;;;;;;;22.90;17.55;;;;;;;;;;5030070;28;20040;-78
2023/06/17 04:15:36;;;;;;;28.17;18.75;;;;;;;;;;5025330;28;20033;-79
2023/06/17 04:18:02;;;;;;;25.25;16.80;;;;;;;;;;5023638;28;20038;-78
2023/06/17 04:20:29;;;;;;;26.85;18.13;;;;;;;;;;5015031;28;20756;-77
2023/06/17 04:22:55;;;;;;;23.80;16.60;;;;;;;;;;5029730;28;20049;-77
2023/06/17 04:25:22;;;;;;;24.75;17.75;;;;;;;;;;5027210;28;20029;-77
2023/06/17 04:27:49;;;;;;;26.77;17.95;;;;;;;;;;5028809;28;20570;-77
2023/06/17 04:30:16;;;;;;;29.38;16.33;;;;;;;;;;5024272;28;20494;-78
2023/06/17 04:32:42;;;;;;;24.52;17.55;;;;;;;;;;5029226;28;20113;-77
2023/06/17 04:35:09;;;;;;;20.58;16.38;;;;;;;;;;5026985;28;20477;-77
2023/06/17 04:37:36;;;;;;;24.33;16.77;;;;;;;;;;5028945;28;20479;-76
2023/06/17 04:40:06;;;;;;;20.83;15.65;;;;;;;;;;5021720;28;20174;-78
2023/06/17 04:42:33;;;;;;;26.75;15.50;;;;;;;;;;5027372;28;20036;-76
2023/06/17 04:44:59;;;;;;;19.83;14.38;;;;;;;;;;5021296;28;20037;-81
2023/06/17 04:47:26;;;;;;;25.02;16.55;;;;;;;;;;5029428;28;20033;-82
2023/06/17 04:49:53;;;;;;;19.77;14.05;;;;;;;;;;5026063;28;20037;-82
2023/06/17 04:52:20;;;;;;;23.30;14.27;;;;;;;;;;5035499;28;20111;-84
2023/06/17 04:54:46;;;;;;;22.85;15.38;;;;;;;;;;5022416;28;20029;-77
2023/06/17 04:57:13;;;;;;;23.17;14.27;;;;;;;;;;5024221;28;20092;-78
2023/06/17 04:59:40;;;;;;;19.60;13.57;;;;;;;;;;5027497;28;20593;-76
2023/06/17 05:02:06;;;;;;;20.58;12.90;;;;;;;;;;5027371;28;20103;-76
2023/06/17 05:04:34;;;;;;;22.70;12.27;;;;;;;;;;5025712;28;20471;-76
2023/06/17 05:07:01;;;;;;;22.00;11.20;;;;;;;;;;5010395;28;20506;-75
2023/06/17 05:09:27;;;;;;;20.45;11.45;;;;;;;;;;5023006;28;20026;-76
2023/06/17 05:11:53;;;;;;;17.60;11.25;;;;;;;;;;5026955;28;20315;-76
2023/06/17 05:14:19;;;;;;;14.73;10.77;;;;;;;;;;5023194;28;20344;-76
2023/06/17 05:16:46;;;;;;;20.02;9.77;;;;;;;;;;5024174;28;22133;-76
2023/06/17 05:19:12;;;;;;;14.20;10.15;;;;;;;;;;5018981;28;20032;-80
2023/06/17 05:21:38;;;;;;;18.95;11.30;;;;;;;;;;5021937;28;20120;-77
2023/06/17 05:24:05;;;;;;;15.65;10.50;;;;;;;;;;5022905;28;20064;-78
2023/06/17 05:26:31;;;;;;;14.32;10.45;;;;;;;;;;5017837;28;20037;-78
2023/06/17 05:28:57;;;;;;;20.52;11.30;;;;;;;;;;5026674;28;20029;-87
2023/06/17 05:31:23;;;;;;;15.30;10.32;;;;;;;;;;5026404;28;20085;-80
2023/06/17 05:33:49;;;;;;;23.85;15.38;;;;;;;;;;5025043;28;20048;-78
2023/06/17 05:36:15;;;;;;;14.55;11.30;;;;;;;;;;5023648;28;20045;-78
2023/06/17 05:38:41;;;;;;;18.90;10.73;;;;;;;;;;5014962;28;20038;-78
2023/06/17 05:41:09;;;;;;;17.77;10.43;;;;;;;;;;5022405;28;20030;-79
2023/06/17 05:43:35;;;;;;;14.27;9.95;;;;;;;;;;5036064;28;20029;-80
2023/06/17 05:46:01;;;;;;;15.65;10.18;;;;;;;;;;5024304;28;20041;-79
2023/06/17 05:48:27;;;;;;;15.40;10.02;;;;;;;;;;5031875;28;20048;-79
2023/06/17 05:50:53;;;;;;;17.25;10.45;;;;;;;;;;5026641;28;20037;-78
2023/06/17 05:53:19;;;;;;;16.30;10.00;;;;;;;;;;5022823;28;20026;-78
2023/06/17 05:55:48;;;;;;;18.17;11.00;;;;;;;;;;5027470;28;20044;-81
2023/06/17 05:58:14;;;;;;;19.73;9.98;;;;;;;;;;5032553;28;20030;-84
2023/06/17 06:00:40;;;;;;;17.60;10.23;;;;;;;;;;5029827;28;20072;-82
2023/06/17 06:03:06;;;;;;;15.75;9.30;;;;;;;;;;5038161;28;20486;-84
2023/06/17 06:05:32;;;;;;;14.98;9.25;;;;;;;;;;5037963;28;20131;-81
2023/06/17 06:07:58;;;;;;;20.25;9.35;;;;;;;;;;5031863;28;20382;-79
2023/06/17 06:10:27;;;;;;;21.08;9.02;;;;;;;;;;5032558;28;20116;-82
2023/06/17 06:12:53;;;;;;;14.80;8.52;;;;;;;;;;5030809;28;20061;-82
2023/06/17 06:15:19;;;;;;;16.65;9.23;;;;;;;;;;5020437;28;20340;-80
2023/06/17 06:17:45;;;;;;;15.35;9.15;;;;;;;;;;5030222;28;20034;-76
2023/06/17 06:20:11;;;;;;;16.48;9.55;;;;;;;;;;5025394;28;20133;-76
2023/06/17 06:22:37;;;;;;;21.88;9.35;;;;;;;;;;5043054;28;20049;-76
2023/06/17 06:25:05;;;;;;;18.88;9.75;;;;;;;;;;5032068;28;20042;-78
2023/06/17 06:27:31;;;;;;;16.17;9.10;;;;;;;;;;5023082;28;20440;-77
2023/06/17 06:30:00;;;;;;;14.60;9.60;;;;;;;;;;5024677;28;20057;-76
2023/06/17 06:32:26;;;;;;;20.75;9.68;;;;;;;;;;5023226;28;20198;-77
2023/06/17 06:34:53;;;;;;;15.63;9.60;;;;;;;;;;5023305;28;20472;-76
2023/06/17 06:37:19;;;;;;;18.10;10.63;;;;;;;;;;5023716;28;20034;-78
2023/06/17 06:39:45;;;;;;;15.10;9.30;;;;;;;;;;5021773;28;20030;-77
2023/06/17 06:42:11;;;;;;;13.00;9.25;;;;;;;;;;5021590;28;20060;-80
2023/06/17 06:44:37;;;;;;;17.85;11.90;;;;;;;;;;5021076;28;20040;-74
2023/06/17 06:47:04;;;;;;;24.08;11.60;;;;;;;;;;5021117;28;20095;-73
2023/06/17 06:49:30;;;;;;;20.35;11.05;;;;;;;;;;5022506;28;20037;-79
2023/06/17 06:51:56;;;;;;;17.88;10.93;;;;;;;;;;5023045;28;20039;-79
2023/06/17 06:54:22;;;;;;;20.92;10.43;;;;;;;;;;5019156;28;20148;-81
2023/06/17 06:56:48;;;;;;;15.77;9.70;;;;;;;;;;5021759;28;20103;-81
2023/06/17 06:59:14;;;;;;;20.42;11.13;;;;;;;;;;5031934;28;20037;-82
2023/06/17 07:01:40;;;;;;;22.77;11.23;;;;;;;;;;5030806;28;20034;-79
2023/06/17 07:04:06;;;;;;;17.00;10.00;;;;;;;;;;5031147;28;20112;-81
2023/06/17 07:06:32;;;;;;;22.10;10.25;;;;;;;;;;5031092;28;20057;-79
2023/06/17 07:08:58;;;;;;;20.00;10.00;;;;;;;;;;5031526;28;20042;-78
2023/06/17 07:11:24;;;;;;;16.38;10.27;;;;;;;;;;5009335;28;20498;-75
2023/06/17 07:13:50;;;;;;;19.58;10.82;;;;;;;;;;5031676;28;20038;-74
2023/06/17 07:16:16;;;;;;;16.77;10.45;;;;;;;;;;5032501;28;20045;-75
2023/06/17 07:18:42;;;;;;;17.25;11.43;;;;;;;;;;5029375;28;20057;-81
2023/06/17 07:21:10;;;;;;;18.98;11.43;;;;;;;;;;5024277;28;22771;-72
2023/06/17 07:23:36;;;;;;;15.27;9.68;;;;;;;;;;5031477;28;20511;-72
2023/06/17 07:26:02;;;;;;;13.32;8.52;;;;;;;;;;5038196;28;20505;-77
2023/06/17 07:28:29;;;;;;;13.82;9.05;;;;;;;;;;5032777;28;20065;-78
2023/06/17 07:30:55;;;;;;;10.40;7.65;;;;;;;;;;5025675;28;20065;-77
2023/06/17 07:33:22;;;;;;;15.35;8.93;;;;;;;;;;5042067;28;20032;-79
2023/06/17 07:35:48;;;;;;;11.80;8.38;;;;;;;;;;5025706;28;20037;-78
2023/06/17 07:38:14;;;;;;;11.65;8.48;;;;;;;;;;5030757;28;20366;-79
2023/06/17 07:40:39;;;;;;;18.45;8.90;;;;;;;;;;5028070;28;20459;-79
2023/06/17 07:43:06;;;;;;;13.85;8.57;;;;;;;;;;5028160;28;20061;-80
2023/06/17 07:45:32;;;;;;;11.35;7.32;;;;;;;;;;5031550;28;20021;-78
2023/06/17 07:47:58;;;;;;;13.18;8.77;;;;;;;;;;5030697;28;20439;-79
2023/06/17 07:50:24;;;;;;;12.50;8.27;;;;;;;;;;5027513;28;20561;-80
2023/06/17 07:52:50;;;;;;;16.15;8.45;;;;;;;;;;5027155;28;20030;-80
2023/06/17 07:55:16;;;;;;;15.63;7.72;;;;;;;;;;5030177;28;20068;-81
2023/06/17 07:57:42;;;;;;;14.45;8.23;;;;;;;;;;5031063;28;20032;-81
2023/06/17 08:00:15;;;;;;;11.60;7.88;;;;;;;;;;5028441;28;20391;-81
2023/06/17 08:02:41;;;;;;;12.90;8.00;;;;;;;;;;5024406;28;20026;-81
2023/06/17 08:05:08;;;;;;;12.15;7.63;;;;;;;;;;5022888;28;20025;-82
2023/06/17 08:07:34;;;;;;;12.40;7.80;;;;;;;;;;5027759;28;20471;-81
2023/06/17 08:10:00;;;;;;;10.95;7.13;;;;;;;;;;5023733;28;20030;-81
2023/06/17 08:12:26;;;;;;;13.30;7.35;;;;;;;;;;5021787;28;20031;-81
2023/06/17 08:14:52;;;;;;;17.25;7.03;;;;;;;;;;5024988;28;20076;-82
2023/06/17 08:17:18;;;;;;;11.50;7.03;;;;;;;;;;5019901;28;20436;-83
2023/06/17 08:19:44;;;;;;;13.85;6.75;;;;;;;;;;5019851;28;20094;-81
2023/06/17 08:22:10;;;;;;;19.75;7.40;;;;;;;;;;5016964;28;20104;-82
2023/06/17 08:24:37;;;;;;;10.85;6.85;;;;;;;;;;5030993;28;20509;-81
2023/06/17 08:27:04;;;;;;;15.68;7.15;;;;;;;;;;5029109;28;20103;-81
2023/06/17 08:29:31;;;;;;;12.95;6.13;;;;;;;;;;5051797;28;20067;-82
2023/06/17 08:31:57;;;;;;;9.32;6.05;;;;;;;;;;5031059;28;20475;-82
2023/06/17 08:34:23;;;;;;;10.57;6.00;;;;;;;;;;5012867;28;20120;-81
2023/06/17 08:36:52;;;;;;;10.18;6.15;;;;;;;;;;5031350;28;20041;-82
2023/06/17 08:39:18;;;;;;;11.93;6.18;;;;;;;;;;5029431;28;20033;-83
2023/06/17 08:41:44;;;;;;;9.35;5.55;;;;;;;;;;5025152;28;20033;-81
2023/06/17 08:44:11;;;;;;;9.35;5.60;;;;;;;;;;5029728;28;20042;-83
2023/06/17 08:46:38;;;;;;;11.00;5.68;;;;;;;;;;5029412;28;20033;-81
2023/06/17 08:49:04;;;;;;;11.20;5.65;;;;;;;;;;5030378;28;20058;-82
2023/06/17 08:51:31;;;;;;;7.38;5.22;;;;;;;;;;5030336;28;20021;-82
2023/06/17 08:53:57;;;;;;;10.05;5.57;;;;;;;;;;5029388;28;20026;-82
2023/06/17 08:56:23;;;;;;;8.23;5.70;;;;;;;;;;5026010;28;20082;-82
2023/06/17 08:58:50;;;;;;;11.85;6.40;;;;;;;;;;5027740;28;20041;-82
2023/06/17 09:01:17;;;;;;;14.73;6.35;;;;;;;;;;5030074;28;20017;-80
2023/06/17 09:03:43;;;;;;;10.02;5.95;;;;;;;;;;5027999;28;20028;-83
2023/06/17 09:06:17;;;;;;;9.65;6.00;;;;;;;;;;5029396;28;20037;-84
2023/06/17 09:08:43;;;;;;;12.45;5.80;;;;;;;;;;5029660;28;20045;-83
2023/06/17 09:11:10;;;;;;;8.32;6.45;;;;;;;;;;5029726;28;20298;-84
2023/06/17 09:13:36;;;;;;;15.15;6.15;;;;;;;;;;5008993;28;20052;-83
2023/06/17 09:16:03;;;;;;;10.85;5.50;;;;;;;;;;5019048;28;20450;-82
2023/06/17 09:18:35;;;;;;;8.32;5.82;;;;;;;;;;5018533;28;20036;-82
2023/06/17 09:21:02;;;;;;;9.55;6.03;;;;;;;;;;5027872;28;20088;-80
2023/06/17 09:23:28;;;;;;;10.05;5.75;;;;;;;;;;5030158;28;20123;-80
2023/06/17 09:26:04;;;;;;;11.63;5.43;;;28.20;99.90;;;;;;5030600;28;20051;-81
2023/06/17 09:28:31;;;;;;;10.85;4.97;;;;;;;;;;5018247;28;20048;-82
2023/06/17 09:30:59;;;;;;;9.73;5.53;;;;;;;;;;5043778;28;20322;-82
2023/06/17 09:33:26;;;;;;;11.25;5.50;;;28.50;99.90;;;;;;5021788;28;20057;-80
2023/06/17 09:35:59;;;;;;;10.07;5.22;;;28.80;99.90;;;;;;5019411;28;20049;-83
2023/06/17 09:38:25;;;;;;;9.70;5.15;;;28.50;99.90;;;;;;5029139;28;20336;-86
2023/06/17 09:40:51;;;;;;;10.48;5.68;;;28.50;99.90;;;;;;5027239;28;20049;-85
2023/06/17 09:43:17;;;;;;;8.27;5.05;;;28.50;99.90;;;;;;5029751;28;20040;-82
2023/06/17 09:45:49;;;;;;;10.38;5.25;;;;;;;;;;5029678;28;20056;-78
2023/06/17 09:48:17;;;;;;;10.10;5.57;;;;;;;;;;5024202;28;20403;-80
2023/06/17 09:50:43;;;;;;;11.35;5.78;;;;;;;;;;5031699;28;20028;-78
2023/06/17 09:53:09;;;;;;;11.02;5.60;;;;;;;;;;5027429;28;20471;-76
2023/06/17 09:55:36;;;;;;;10.93;5.82;;;;;;;;;;5032288;28;20037;-72
2023/06/17 09:58:04;;;;;;;10.13;5.45;;;28.60;99.90;;;;;;5032167;28;20487;-74
2023/06/17 10:00:32;;;;;;;13.18;5.85;;;;;;;;;;5027618;28;20471;-75
2023/06/17 10:03:00;;;;;;;12.48;5.60;;;;;;;;;;5025918;28;20033;-82
2023/06/17 10:05:27;;;;;;;8.25;5.50;;;;;;;;;;5024534;28;20101;-83
2023/06/17 10:07:56;;;;;;;9.48;5.45;;;;;;;;;;5029747;28;20073;-80
2023/06/17 10:10:23;;;;;;;9.32;5.57;;;29.30;99.90;;;;;;5033388;28;20104;-80
2023/06/17 10:12:51;;;;;;;7.53;5.10;;;;;;;;;;5024824;28;20025;-79
2023/06/17 10:15:21;;;;;;;11.38;5.78;;;;;;;;;;5031674;28;20056;-82
2023/06/17 10:17:48;;;;;;;7.28;4.75;;;;;;;;;;5031514;28;20156;-81
2023/06/17 10:20:15;;;;;;;8.20;4.30;;;30.20;99.90;;;;;;5020835;28;20046;-77
2023/06/17 10:22:42;;;;;;;6.97;5.38;;;30.30;99.90;;;;;;5030051;28;20038;-78
2023/06/17 10:25:10;;;;;;;8.75;4.85;;;30.10;99.90;;;;;;5031123;28;20469;-79
2023/06/17 10:27:36;;;;;;;8.35;5.10;;;;;;;;;;5030294;28;20690;-79
2023/06/17 10:30:26;;;;;;;7.78;4.78;;;29.90;99.90;;;;;;5031596;28;20021;-78
2023/06/17 10:32:53;;;;;;;14.70;4.75;;;;;;;;;;5014579;28;20045;-79
2023/06/17 10:35:20;;;;;;;8.57;5.07;;;;;;;;;;5025246;28;20123;-80
2023/06/17 10:37:50;;;;;;;11.30;5.28;;;;;;;;;;5030660;28;20091;-78
2023/06/17 10:40:20;;;;;;;9.98;5.65;;;29.90;99.90;;;;;;5023825;28;20254;-80
2023/06/17 10:43:15;;;;;;;10.60;5.38;;;;;;;;;;5019292;28;20427;-78
2023/06/17 10:45:55;;;;;;;9.40;5.05;;;;;;;;;;5028450;28;20124;-77
2023/06/17 10:48:22;;;;;;;13.95;5.40;;;;;;;;;;5030772;28;20041;-77
2023/06/17 10:50:56;;;;;;;7.50;6.00;;;;;;;;;;5031540;28;20099;-78
2023/06/17 10:53:26;;;;;;;8.65;5.15;;;;;;;;;;5030804;28;20607;-77
2023/06/17 10:55:53;;;;;;;9.23;5.07;;;;;;;;;;5022898;28;20195;-78
2023/06/17 10:58:19;;;;;;;8.70;4.82;;;;;;;;;;5024894;28;20108;-82
2023/06/17 11:00:47;;;;;;;9.48;5.22;;;;;;;;;;5022724;28;20116;-82
2023/06/17 11:03:17;;;;;;;9.10;5.40;;;;;;;;;;5029769;28;20495;-84
2023/06/17 11:05:43;;;;;;;12.32;5.90;;;;;;;;;;5028796;28;20049;-78
2023/06/17 11:08:09;;;;;;;6.85;4.90;;;;;;;;;;5030763;28;20034;-78
2023/06/17 11:10:35;;;;;;;8.18;5.18;;;;;;;;;;5027179;28;20084;-77
2023/06/17 11:13:02;;;;;;;8.77;5.07;;;;;;;;;;5030952;28;20064;-78
2023/06/17 11:15:28;;;;;;;9.60;5.32;;;;;;;;;;5027841;28;20343;-80
2023/06/17 11:18:01;;;;;;;5.68;4.32;;;;;;;;;;5028612;28;20034;-80
2023/06/17 11:20:29;;;;;;;10.85;4.63;;;;;;;;;;5023705;28;20475;-80
2023/06/17 11:22:55;;;;;;;7.47;5.03;;;;;;;;;;5029408;28;20104;-80
2023/06/17 11:25:21;;;;;;;10.85;5.82;;;;;;;;;;5025762;28;20120;-82
2023/06/17 11:27:47;;;;;;;7.63;5.05;;;;;;;;;;5032275;28;20037;-81
2023/06/17 11:30:15;;;;;;;13.52;5.90;;;;;;;;;;5021167;28;20408;-82
2023/06/17 11:32:41;;;;;;;8.88;5.97;;;;;;;;;;5031524;28;20022;-82
2023/06/17 11:35:09;;;;;;;10.75;5.38;;;;;;;;;;5028528;28;20030;-87
2023/06/17 11:37:35;;;;;;;10.27;5.15;;;;;;;;;;5024307;28;20116;-86
2023/06/17 11:40:06;;;;;;;8.23;4.68;;;;;;;;;;5026093;28;20030;-85
2023/06/17 11:42:32;;;;;;;11.13;5.78;;;;;;;;;;5028340;28;20029;-85
2023/06/17 11:44:58;;;;;;;9.13;5.45;;;;;;;;;;5030607;28;20038;-87
2023/06/17 11:47:35;;;;;;;13.23;5.47;;;;;;;;;;5029163;28;20049;-87
2023/06/17 11:50:01;;;;;;;8.95;5.30;;;;;;;;;;5027978;28;20467;-84
2023/06/17 11:52:27;;;;;;;8.75;5.18;;;;;;;;;;5024801;28;20037;-82
2023/06/17 11:54:55;;;;;;;9.25;5.78;;;;;;;;;;5026177;28;20491;-82
2023/06/17 11:57:26;;;;;;;10.27;6.20;;;;;;;;;;5025141;28;20045;-82
2023/06/17 11:59:52;;;;;;;10.27;5.03;;;;;;;;;;5020265;28;20509;-77
2023/06/17 12:02:18;;;;;;;6.03;4.90;;;;;;;;;;5023101;28;20033;-72
2023/06/17 12:04:48;;;;;;;11.63;5.75;;;;;;;;;;5024881;28;20051;-73
2023/06/17 12:07:14;;;;;;;9.85;5.13;;;;;;;;;;5025649;28;20038;-73
2023/06/17 12:09:53;;;;;;;10.52;5.38;;;;;;;;;;5016908;28;20033;-85
2023/06/17 12:12:29;;;;;;;6.63;4.70;;;;;;;;;;5028317;28;20026;-74
2023/06/17 12:14:59;;;;;;;6.55;4.53;;;;;;;;;;5018983;28;20038;-75
2023/06/17 12:17:26;;;;;;;12.77;5.53;;;;;;;;;;5029785;28;20124;-76
2023/06/17 12:19:52;;;;;;;11.60;5.45;;;;;;;;;;5026857;28;20045;-75
2023/06/17 12:22:18;;;;;;;6.63;5.30;;;;;;;;;;5028022;28;20085;-76
2023/06/17 12:24:45;;;;;;;9.18;5.35;;;;;;;;;;5021648;28;20480;-76
2023/06/17 12:27:12;;;;;;;8.13;4.80;;;;;;;;;;5026431;28;20029;-76
2023/06/17 12:29:38;;;;;;;10.20;5.53;;;;;;;;;;5030217;28;20430;-76
2023/06/17 12:32:04;;;;;;;5.65;4.70;;;;;;;;;;5029332;28;20029;-75
2023/06/17 12:34:30;;;;;;;6.93;4.20;;;;;;;;;;5025664;28;20044;-76
2023/06/17 12:36:59;;;;;;;6.80;4.53;;;;;;;;;;5025139;28;20104;-75
2023/06/17 12:39:25;;;;;;;9.90;4.32;;;;;;;;;;5012022;28;20045;-76
2023/06/17 12:41:51;;;;;;;8.85;4.90;;;;;;;;;;5005551;28;20187;-76
2023/06/17 12:44:17;;;;;;;11.95;4.60;;;;;;;;;;5018364;28;20430;-75
2023/06/17 12:46:44;;;;;;;7.60;4.85;;;;;;;;;;5022861;28;20056;-75
2023/06/17 12:49:10;;;;;;;8.02;3.83;;;;;;;;;;5027123;28;20483;-75
2023/06/17 12:51:37;;;;;;;10.80;4.88;;;;;;;;;;5017905;28;20534;-75
2023/06/17 12:54:03;;;;;;;8.52;4.43;;;;;;;;;;5025373;28;20740;-75
2023/06/17 12:56:30;;;;;;;6.85;3.95;;;;;;;;;;5028474;28;20037;-75
2023/06/17 12:58:56;;;;;;;9.10;5.05;;;;;;;;;;5027202;28;20442;-74
2023/06/17 13:01:22;;;;;;;8.60;5.35;;;;;;;;;;5030753;28;20072;-74
2023/06/17 13:03:48;;;;;;;8.85;5.07;;;;;;;;;;5027274;28;20067;-76
2023/06/17 13:06:14;;;;;;;11.25;5.13;;;;;;;;;;5023546;28;20037;-77
2023/06/17 13:08:42;;;;;;;15.30;10.98;;;;;;;;;;5027759;28;20040;-76
2023/06/17 13:11:08;;;;;;;9.90;5.30;;;;;;;;;;5024191;28;20024;-76
2023/06/17 13:13:34;;;;;;;10.75;4.97;;;;;;;;;;5015976;28;20048;-75
2023/06/17 13:16:01;;;;;;;11.48;5.88;;;;;;;;;;5020397;28;20029;-71
2023/06/17 13:18:28;;;;;;;9.02;5.63;;;;;;;;;;5020637;28;20029;-81
2023/06/17 13:20:54;;;;;;;12.50;5.70;;;;;;;;;;5020468;28;20036;-74
2023/06/17 13:23:20;;;;;;;9.52;5.63;;;;;;;;;;5016408;28;20049;-77
2023/06/17 13:25:46;;;;;;;10.50;5.22;;;;;;;;;;5019421;28;20035;-75
2023/06/17 13:28:12;;;;;;;9.32;5.43;;;;;;;;;;5020750;28;20215;-75
2023/06/17 13:30:38;;;;;;;9.45;4.75;;;;;;;;;;5019251;28;20438;-76
2023/06/17 13:33:06;;;;;;;7.85;4.80;;;;;;;;;;5020841;28;20045;-75
2023/06/17 13:35:32;;;;;;;9.65;5.45;;;;;;;;;;5020798;28;20104;-76
2023/06/17 13:37:59;;;;;;;9.85;5.15;;;;;;;;;;5024691;28;20025;-75
2023/06/17 13:40:25;;;;;;;9.75;4.95;;;;;;;;;;5016780;28;20038;-76
2023/06/17 13:42:51;;;;;;;9.68;5.50;;;;;;;;;;5018927;28;20041;-71
2023/06/17 13:45:17;;;;;;;10.25;5.65;;;;;;;;;;5026934;28;20044;-71
2023/06/17 13:47:43;;;;;;;10.48;4.80;;;;;;;;;;5024027;28;20068;-71
2023/06/17 13:50:09;;;;;;;7.43;4.70;;;;;;;;;;5023929;28;20120;-71
2023/06/17 13:52:35;;;;;;;8.23;4.80;;;;;;;;;;5017179;28;20044;-71
2023/06/17 13:55:02;;;;;;;9.05;4.60;;;;;;;;;;5018398;28;20363;-71
2023/06/17 13:57:28;;;;;;;7.10;4.40;;;;;;;;;;5024973;28;20041;-81
2023/06/17 13:59:55;;;;;;;6.45;4.95;;;;;;;;;;5023710;28;20045;-84
2023/06/17 14:02:21;;;;;;;7.50;4.88;;;;;;;;;;5024159;28;20069;-79
2023/06/17 14:04:48;;;;;;;10.25;4.85;;;;;;;;;;5025047;28;20470;-75
2023/06/17 14:07:14;;;;;;;9.15;5.00;;;;;;;;;;5023879;28;20394;-70
2023/06/17 14:09:40;;;;;;;10.68;5.00;;;;;;;;;;5026026;28;20028;-70
2023/06/17 14:12:07;;;;;;;7.53;4.70;;;;;;;;;;5024874;28;20024;-70
2023/06/17 14:14:33;;;;;;;8.27;4.63;;;;;;;;;;5024917;28;20387;-70
2023/06/17 14:16:59;;;;;;;9.27;4.95;;;;;;;;;;5024046;28;20430;-71
2023/06/17 14:19:27;;;;;;;36.17;5.63;;;;;;;;;;5028595;28;20699;-71
2023/06/17 14:21:55;;;;;;;12.93;4.65;;;;;;;;;;5027767;28;20064;-78